sensor_id;sensor_type;location;lat;lon;timestamp;pressure;altitude;pressure_sealevel;temperature;humidity
55540;BME280;41384;51.418;7.286;2023-05-19T00:01:34;100821.97;;;11.19;68.86
55540;BME280;41384;51.418;7.286;2023-05-19T00:04:02;100821.22;;;11.26;69.27
55540;BME280;41384;51.418;7.286;2023-05-19T00:06:30;100815.03;;;11.18;68.76
55540;BME280;41384;51.418;7.286;2023-05-19T00:09:07;100822.84;;;11.27;68.73
55540;BME280;41384;51.418;7.286;2023-05-19T00:11:34;100812.03;;;11.21;69.57
55540;BME280;41384;51.418;7.286;2023-05-19T00:14:00;100810.91;;;11.31;68.88
55540;BME280;41384;51.418;7.286;2023-05-19T00:16:27;100814.28;;;11.39;68.38
55540;BME280;41384;51.418;7.286;2023-05-19T00:18:53;100806.13;;;11.41;67.98
55540;BME280;41384;51.418;7.286;2023-05-19T00:21:19;100811.38;;;11.34;67.84
55540;BME280;41384;51.418;7.286;2023-05-19T00:23:44;100806.72;;;11.36;67.71
55540;BME280;41384;51.418;7.286;2023-05-19T00:26:10;100805.84;;;11.51;67.12
55540;BME280;41384;51.418;7.286;2023-05-19T00:28:35;100807.56;;;11.59;66.77
55540;BME280;41384;51.418;7.286;2023-05-19T00:31:03;100808.88;;;11.48;66.86
55540;BME280;41384;51.418;7.286;2023-05-19T00:33:28;100809.75;;;11.55;66.72
55540;BME280;41384;51.418;7.286;2023-05-19T00:35:54;100805.44;;;11.32;67.81
55540;BME280;41384;51.418;7.286;2023-05-19T00:38:19;100812.34;;;10.97;70.47
55540;BME280;41384;51.418;7.286;2023-05-19T00:40:44;100815.19;;;10.80;70.87
55540;BME280;41384;51.418;7.286;2023-05-19T00:43:10;100812.00;;;10.85;71.05
55540;BME280;41384;51.418;7.286;2023-05-19T00:45:35;100811.63;;;10.58;72.36
55540;BME280;41384;51.418;7.286;2023-05-19T00:48:01;100810.81;;;10.72;71.98
55540;BME280;41384;51.418;7.286;2023-05-19T00:50:26;100812.91;;;10.77;71.67
55540;BME280;41384;51.418;7.286;2023-05-19T00:52:53;100813.16;;;10.97;70.74
55540;BME280;41384;51.418;7.286;2023-05-19T00:55:21;100815.72;;;10.75;71.95
55540;BME280;41384;51.418;7.286;2023-05-19T00:57:48;100815.16;;;10.50;73.27
55540;BME280;41384;51.418;7.286;2023-05-19T01:00:13;100817.16;;;10.48;73.50
55540;BME280;41384;51.418;7.286;2023-05-19T01:02:39;100813.28;;;10.74;72.21
55540;BME280;41384;51.418;7.286;2023-05-19T01:05:05;100802.59;;;10.97;71.15
55540;BME280;41384;51.418;7.286;2023-05-19T01:07:31;100810.44;;;10.90;71.36
55540;BME280;41384;51.418;7.286;2023-05-19T01:09:56;100806.50;;;11.01;70.53
55540;BME280;41384;51.418;7.286;2023-05-19T01:12:22;100813.72;;;11.07;70.15
55540;BME280;41384;51.418;7.286;2023-05-19T01:14:47;100809.50;;;11.13;69.87
55540;BME280;41384;51.418;7.286;2023-05-19T01:17:20;100810.09;;;10.93;70.49
55540;BME280;41384;51.418;7.286;2023-05-19T01:20:01;100812.16;;;10.98;70.31
55540;BME280;41384;51.418;7.286;2023-05-19T01:25:16;100798.03;;;10.91;71.39
55540;BME280;41384;51.418;7.286;2023-05-19T01:30:32;100803.25;;;10.69;72.94
55540;BME280;41384;51.418;7.286;2023-05-19T01:33:02;100804.00;;;10.63;73.48
55540;BME280;41384;51.418;7.286;2023-05-19T01:35:29;100806.81;;;10.61;73.52
55540;BME280;41384;51.418;7.286;2023-05-19T01:37:58;100805.34;;;10.59;73.64
55540;BME280;41384;51.418;7.286;2023-05-19T01:40:25;100800.53;;;10.62;73.16
55540;BME280;41384;51.418;7.286;2023-05-19T01:42:52;100801.44;;;10.70;73.15
55540;BME280;41384;51.418;7.286;2023-05-19T01:45:19;100793.69;;;10.68;73.06
55540;BME280;41384;51.418;7.286;2023-05-19T01:47:47;100803.34;;;10.76;72.93
55540;BME280;41384;51.418;7.286;2023-05-19T01:50:13;100801.88;;;10.73;72.84
55540;BME280;41384;51.418;7.286;2023-05-19T01:52:39;100806.53;;;10.71;73.50
55540;BME280;41384;51.418;7.286;2023-05-19T01:55:05;100805.38;;;10.74;72.58
55540;BME280;41384;51.418;7.286;2023-05-19T01:57:42;100802.91;;;10.87;72.66
55540;BME280;41384;51.418;7.286;2023-05-19T02:00:29;100805.69;;;10.86;72.59
55540;BME280;41384;51.418;7.286;2023-05-19T02:03:17;100803.59;;;10.96;71.76
55540;BME280;41384;51.418;7.286;2023-05-19T02:10:53;100817.16;;;10.48;74.23
55540;BME280;41384;51.418;7.286;2023-05-19T02:13:22;100824.84;;;10.58;74.20
55540;BME280;41384;51.418;7.286;2023-05-19T02:15:51;100823.44;;;10.47;75.52
55540;BME280;41384;51.418;7.286;2023-05-19T02:18:18;100822.00;;;10.44;75.42
55540;BME280;41384;51.418;7.286;2023-05-19T02:20:44;100816.50;;;10.31;75.22
55540;BME280;41384;51.418;7.286;2023-05-19T02:23:09;100819.84;;;10.25;76.06
55540;BME280;41384;51.418;7.286;2023-05-19T02:25:35;100819.06;;;10.39;74.69
55540;BME280;41384;51.418;7.286;2023-05-19T02:28:00;100823.03;;;10.20;76.50
55540;BME280;41384;51.418;7.286;2023-05-19T02:30:25;100827.00;;;10.16;76.88
55540;BME280;41384;51.418;7.286;2023-05-19T02:32:50;100819.69;;;10.03;77.27
55540;BME280;41384;51.418;7.286;2023-05-19T02:35:21;100813.84;;;9.92;78.49
55540;BME280;41384;51.418;7.286;2023-05-19T02:37:46;100807.41;;;9.95;78.08
55540;BME280;41384;51.418;7.286;2023-05-19T02:40:11;100809.22;;;9.95;78.31
55540;BME280;41384;51.418;7.286;2023-05-19T02:42:39;100812.09;;;10.23;76.02
55540;BME280;41384;51.418;7.286;2023-05-19T02:45:05;100821.13;;;10.29;74.97
55540;BME280;41384;51.418;7.286;2023-05-19T02:47:30;100815.66;;;10.30;74.27
55540;BME280;41384;51.418;7.286;2023-05-19T02:49:55;100815.09;;;10.20;74.88
55540;BME280;41384;51.418;7.286;2023-05-19T02:52:21;100819.94;;;10.16;74.89
55540;BME280;41384;51.418;7.286;2023-05-19T02:54:46;100805.38;;;10.20;75.38
55540;BME280;41384;51.418;7.286;2023-05-19T02:57:11;100811.84;;;9.95;76.70
55540;BME280;41384;51.418;7.286;2023-05-19T02:59:36;100809.78;;;10.05;76.70
55540;BME280;41384;51.418;7.286;2023-05-19T03:02:02;100806.44;;;10.11;75.71
55540;BME280;41384;51.418;7.286;2023-05-19T03:04:28;100801.13;;;9.96;76.39
55540;BME280;41384;51.418;7.286;2023-05-19T03:06:55;100803.84;;;9.88;76.76
55540;BME280;41384;51.418;7.286;2023-05-19T03:09:21;100794.09;;;9.88;77.48
55540;BME280;41384;51.418;7.286;2023-05-19T03:11:47;100796.16;;;9.78;79.09
55540;BME280;41384;51.418;7.286;2023-05-19T03:14:12;100799.78;;;10.00;76.88
55540;BME280;41384;51.418;7.286;2023-05-19T03:16:40;100797.09;;;9.85;77.80
55540;BME280;41384;51.418;7.286;2023-05-19T03:19:06;100797.00;;;9.78;77.97
55540;BME280;41384;51.418;7.286;2023-05-19T03:21:32;100800.38;;;9.87;77.70
55540;BME280;41384;51.418;7.286;2023-05-19T03:23:58;100796.28;;;9.85;77.68
55540;BME280;41384;51.418;7.286;2023-05-19T03:26:24;100803.47;;;9.91;77.33
55540;BME280;41384;51.418;7.286;2023-05-19T03:28:49;100805.41;;;9.74;78.59
55540;BME280;41384;51.418;7.286;2023-05-19T03:31:15;100808.25;;;9.72;78.42
55540;BME280;41384;51.418;7.286;2023-05-19T03:33:40;100814.38;;;9.88;78.05
55540;BME280;41384;51.418;7.286;2023-05-19T03:36:06;100807.19;;;9.82;77.94
55540;BME280;41384;51.418;7.286;2023-05-19T03:38:31;100815.47;;;9.70;78.50
55540;BME280;41384;51.418;7.286;2023-05-19T03:40:56;100804.78;;;9.72;78.36
55540;BME280;41384;51.418;7.286;2023-05-19T03:43:22;100805.59;;;9.49;79.34
55540;BME280;41384;51.418;7.286;2023-05-19T03:45:47;100805.47;;;9.66;80.22
55540;BME280;41384;51.418;7.286;2023-05-19T03:48:12;100803.25;;;9.54;80.07
55540;BME280;41384;51.418;7.286;2023-05-19T03:50:39;100806.47;;;9.64;79.44
55540;BME280;41384;51.418;7.286;2023-05-19T03:53:05;100803.34;;;9.61;79.97
55540;BME280;41384;51.418;7.286;2023-05-19T03:55:30;100804.88;;;9.55;80.85
55540;BME280;41384;51.418;7.286;2023-05-19T03:57:56;100798.56;;;9.64;80.19
55540;BME280;41384;51.418;7.286;2023-05-19T04:00:21;100797.78;;;9.56;80.19
55540;BME280;41384;51.418;7.286;2023-05-19T04:02:46;100803.66;;;9.66;80.83
55540;BME280;41384;51.418;7.286;2023-05-19T04:05:12;100802.19;;;9.63;80.38
55540;BME280;41384;51.418;7.286;2023-05-19T04:07:38;100801.50;;;9.70;79.71
55540;BME280;41384;51.418;7.286;2023-05-19T04:10:04;100809.75;;;9.67;80.43
55540;BME280;41384;51.418;7.286;2023-05-19T04:12:29;100809.06;;;9.73;79.54
55540;BME280;41384;51.418;7.286;2023-05-19T04:14:54;100810.69;;;9.74;79.00
55540;BME280;41384;51.418;7.286;2023-05-19T04:17:20;100812.81;;;9.78;79.23
55540;BME280;41384;51.418;7.286;2023-05-19T04:19:47;100809.00;;;9.81;78.88
55540;BME280;41384;51.418;7.286;2023-05-19T04:22:12;100810.56;;;9.90;78.73
55540;BME280;41384;51.418;7.286;2023-05-19T04:24:38;100816.47;;;9.92;78.62
55540;BME280;41384;51.418;7.286;2023-05-19T04:27:03;100815.47;;;9.93;79.06
55540;BME280;41384;51.418;7.286;2023-05-19T04:29:29;100804.28;;;9.91;79.35
55540;BME280;41384;51.418;7.286;2023-05-19T04:31:54;100811.09;;;9.86;79.62
55540;BME280;41384;51.418;7.286;2023-05-19T04:34:21;100808.56;;;9.92;79.97
55540;BME280;41384;51.418;7.286;2023-05-19T04:36:46;100811.09;;;9.86;80.59
55540;BME280;41384;51.418;7.286;2023-05-19T04:39:12;100803.78;;;9.73;81.38
55540;BME280;41384;51.418;7.286;2023-05-19T04:41:38;100803.91;;;9.80;80.87
55540;BME280;41384;51.418;7.286;2023-05-19T04:44:05;100807.75;;;9.92;80.43
55540;BME280;41384;51.418;7.286;2023-05-19T04:46:31;100801.78;;;9.98;80.78
55540;BME280;41384;51.418;7.286;2023-05-19T04:48:57;100812.34;;;10.13;78.79
55540;BME280;41384;51.418;7.286;2023-05-19T04:51:25;100816.22;;;10.26;78.79
55540;BME280;41384;51.418;7.286;2023-05-19T04:53:55;100817.78;;;10.35;77.63
55540;BME280;41384;51.418;7.286;2023-05-19T04:56:20;100821.06;;;10.37;77.98
55540;BME280;41384;51.418;7.286;2023-05-19T04:58:46;100815.03;;;10.28;78.25
55540;BME280;41384;51.418;7.286;2023-05-19T05:01:12;100821.41;;;10.34;77.94
55540;BME280;41384;51.418;7.286;2023-05-19T05:03:38;100824.56;;;10.29;78.42
55540;BME280;41384;51.418;7.286;2023-05-19T05:06:03;100821.22;;;10.20;78.99
55540;BME280;41384;51.418;7.286;2023-05-19T05:08:28;100823.03;;;10.20;79.38
55540;BME280;41384;51.418;7.286;2023-05-19T05:10:54;100829.50;;;10.32;78.29
55540;BME280;41384;51.418;7.286;2023-05-19T05:13:21;100825.06;;;10.33;78.55
55540;BME280;41384;51.418;7.286;2023-05-19T05:15:47;100824.81;;;10.43;77.71
55540;BME280;41384;51.418;7.286;2023-05-19T05:18:13;100825.16;;;10.40;78.54
55540;BME280;41384;51.418;7.286;2023-05-19T05:20:40;100828.94;;;10.45;79.00
55540;BME280;41384;51.418;7.286;2023-05-19T05:23:06;100816.56;;;10.61;77.03
55540;BME280;41384;51.418;7.286;2023-05-19T05:25:34;100814.91;;;10.60;76.98
55540;BME280;41384;51.418;7.286;2023-05-19T05:27:59;100822.56;;;10.55;76.66
55540;BME280;41384;51.418;7.286;2023-05-19T05:30:29;100825.47;;;10.60;76.94
55540;BME280;41384;51.418;7.286;2023-05-19T05:32:54;100823.94;;;10.65;77.13
55540;BME280;41384;51.418;7.286;2023-05-19T05:35:20;100826.75;;;10.64;76.96
55540;BME280;41384;51.418;7.286;2023-05-19T05:37:47;100819.03;;;10.62;76.96
55540;BME280;41384;51.418;7.286;2023-05-19T05:40:12;100817.03;;;10.64;77.51
55540;BME280;41384;51.418;7.286;2023-05-19T05:42:38;100812.81;;;10.70;76.99
55540;BME280;41384;51.418;7.286;2023-05-19T05:45:03;100814.91;;;10.60;77.95
55540;BME280;41384;51.418;7.286;2023-05-19T05:47:29;100816.47;;;10.84;76.83
55540;BME280;41384;51.418;7.286;2023-05-19T05:49:54;100809.63;;;10.75;76.22
55540;BME280;41384;51.418;7.286;2023-05-19T05:52:21;100807.44;;;10.78;76.62
55540;BME280;41384;51.418;7.286;2023-05-19T05:54:47;100810.34;;;10.99;76.14
55540;BME280;41384;51.418;7.286;2023-05-19T05:57:12;100804.22;;;10.98;76.61
55540;BME280;41384;51.418;7.286;2023-05-19T05:59:38;100808.06;;;10.95;75.95
55540;BME280;41384;51.418;7.286;2023-05-19T06:02:09;100806.44;;;11.09;75.62
55540;BME280;41384;51.418;7.286;2023-05-19T06:04:34;100813.34;;;11.11;75.52
55540;BME280;41384;51.418;7.286;2023-05-19T06:06:59;100803.16;;;11.07;75.07
55540;BME280;41384;51.418;7.286;2023-05-19T06:09:25;100813.72;;;11.07;75.25
55540;BME280;41384;51.418;7.286;2023-05-19T06:11:51;100808.84;;;11.26;75.02
55540;BME280;41384;51.418;7.286;2023-05-19T06:14:16;100803.66;;;11.18;74.51
55540;BME280;41384;51.418;7.286;2023-05-19T06:16:42;100806.47;;;11.16;73.59
55540;BME280;41384;51.418;7.286;2023-05-19T06:19:07;100803.44;;;11.34;73.85
55540;BME280;41384;51.418;7.286;2023-05-19T06:21:33;100798.53;;;11.31;73.33
55540;BME280;41384;51.418;7.286;2023-05-19T06:23:59;100802.34;;;11.29;73.98
55540;BME280;41384;51.418;7.286;2023-05-19T06:26:24;100800.34;;;11.31;72.92
55540;BME280;41384;51.418;7.286;2023-05-19T06:28:50;100799.53;;;11.30;72.24
55540;BME280;41384;51.418;7.286;2023-05-19T06:31:16;100799.41;;;11.38;72.91
55540;BME280;41384;51.418;7.286;2023-05-19T06:33:41;100795.50;;;11.34;72.00
55540;BME280;41384;51.418;7.286;2023-05-19T06:36:06;100797.94;;;11.36;72.20
55540;BME280;41384;51.418;7.286;2023-05-19T06:38:34;100788.47;;;11.42;72.04
55540;BME280;41384;51.418;7.286;2023-05-19T06:40:59;100790.69;;;11.60;72.13
55540;BME280;41384;51.418;7.286;2023-05-19T06:43:24;100793.38;;;11.66;71.09
55540;BME280;41384;51.418;7.286;2023-05-19T06:45:50;100789.09;;;11.65;70.53
55540;BME280;41384;51.418;7.286;2023-05-19T06:48:15;100789.47;;;11.62;70.41
55540;BME280;41384;51.418;7.286;2023-05-19T06:50:40;100793.38;;;11.66;70.38
55540;BME280;41384;51.418;7.286;2023-05-19T06:53:05;100791.19;;;11.70;70.15
55540;BME280;41384;51.418;7.286;2023-05-19T06:55:31;100795.13;;;11.81;70.78
55540;BME280;41384;51.418;7.286;2023-05-19T06:57:56;100791.47;;;11.82;70.12
55540;BME280;41384;51.418;7.286;2023-05-19T07:00:21;100788.13;;;11.95;69.82
55540;BME280;41384;51.418;7.286;2023-05-19T07:02:46;100786.25;;;11.89;69.93
55540;BME280;41384;51.418;7.286;2023-05-19T07:05:12;100786.25;;;11.89;69.77
55540;BME280;41384;51.418;7.286;2023-05-19T07:07:37;100787.84;;;12.05;70.11
55540;BME280;41384;51.418;7.286;2023-05-19T07:10:02;100792.56;;;12.09;69.13
55540;BME280;41384;51.418;7.286;2023-05-19T07:12:28;100794.63;;;12.14;69.04
55540;BME280;41384;51.418;7.286;2023-05-19T07:14:53;100789.75;;;12.18;68.86
55540;BME280;41384;51.418;7.286;2023-05-19T07:17:18;100793.72;;;12.29;68.83
55540;BME280;41384;51.418;7.286;2023-05-19T07:19:43;100782.50;;;12.26;68.38
55540;BME280;41384;51.418;7.286;2023-05-19T07:22:09;100786.25;;;12.39;68.58
55540;BME280;41384;51.418;7.286;2023-05-19T07:24:34;100782.19;;;12.43;67.50
55540;BME280;41384;51.418;7.286;2023-05-19T07:27:00;100788.78;;;12.54;67.69
55540;BME280;41384;51.418;7.286;2023-05-19T07:29:25;100784.28;;;12.54;66.42
55540;BME280;41384;51.418;7.286;2023-05-19T07:31:50;100782.88;;;12.52;66.17
55540;BME280;41384;51.418;7.286;2023-05-19T07:34:19;100785.16;;;12.62;65.87
55540;BME280;41384;51.418;7.286;2023-05-19T07:36:44;100787.22;;;12.66;65.98
55540;BME280;41384;51.418;7.286;2023-05-19T07:39:09;100780.94;;;12.74;65.99
55540;BME280;41384;51.418;7.286;2023-05-19T07:41:35;100784.19;;;12.76;65.89
55540;BME280;41384;51.418;7.286;2023-05-19T07:44:00;100789.72;;;12.75;64.89
55540;BME280;41384;51.418;7.286;2023-05-19T07:46:25;100776.91;;;12.85;64.86
55540;BME280;41384;51.418;7.286;2023-05-19T07:48:50;100774.06;;;12.87;64.91
55540;BME280;41384;51.418;7.286;2023-05-19T07:51:16;100780.63;;;12.91;64.51
55540;BME280;41384;51.418;7.286;2023-05-19T07:53:41;100774.31;;;12.92;64.40
55540;BME280;41384;51.418;7.286;2023-05-19T07:56:06;100783.88;;;12.99;64.64
55540;BME280;41384;51.418;7.286;2023-05-19T07:58:31;100775.75;;;13.08;64.50
55540;BME280;41384;51.418;7.286;2023-05-19T08:00:58;100778.22;;;13.09;63.99
55540;BME280;41384;51.418;7.286;2023-05-19T08:03:24;100772.13;;;13.16;64.57
55540;BME280;41384;51.418;7.286;2023-05-19T08:05:49;100773.38;;;13.20;63.58
55540;BME280;41384;51.418;7.286;2023-05-19T08:08:14;100764.19;;;13.22;62.78
55540;BME280;41384;51.418;7.286;2023-05-19T08:10:43;100763.59;;;13.27;62.98
55540;BME280;41384;51.418;7.286;2023-05-19T08:13:09;100761.59;;;13.36;62.36
55540;BME280;41384;51.418;7.286;2023-05-19T08:15:34;100759.56;;;13.45;62.90
55540;BME280;41384;51.418;7.286;2023-05-19T08:17:59;100757.75;;;13.45;62.13
55540;BME280;41384;51.418;7.286;2023-05-19T08:20:25;100754.63;;;13.41;61.67
55540;BME280;41384;51.418;7.286;2023-05-19T08:22:50;100757.56;;;13.53;62.55
55540;BME280;41384;51.418;7.286;2023-05-19T08:25:16;100753.06;;;13.61;63.20
55540;BME280;41384;51.418;7.286;2023-05-19T08:27:41;100754.50;;;13.70;62.88
55540;BME280;41384;51.418;7.286;2023-05-19T08:30:07;100753.28;;;13.79;61.24
55540;BME280;41384;51.418;7.286;2023-05-19T08:32:32;100748.38;;;13.83;60.07
55540;BME280;41384;51.418;7.286;2023-05-19T08:34:57;100748.59;;;13.88;59.07
55540;BME280;41384;51.418;7.286;2023-05-19T08:37:23;100746.53;;;13.90;59.61
55540;BME280;41384;51.418;7.286;2023-05-19T08:39:48;100747.13;;;13.99;60.00
55540;BME280;41384;51.418;7.286;2023-05-19T08:42:13;100748.34;;;14.10;59.07
55540;BME280;41384;51.418;7.286;2023-05-19T08:44:38;100737.94;;;14.15;58.06
55540;BME280;41384;51.418;7.286;2023-05-19T08:47:06;100731.19;;;14.19;57.03
55540;BME280;41384;51.418;7.286;2023-05-19T08:49:44;100739.56;;;14.16;56.84
55540;BME280;41384;51.418;7.286;2023-05-19T08:55:08;100733.81;;;14.33;56.03
55540;BME280;41384;51.418;7.286;2023-05-19T08:57:37;100724.56;;;14.42;55.25
55540;BME280;41384;51.418;7.286;2023-05-19T09:00:03;100730.50;;;14.44;56.06
55540;BME280;41384;51.418;7.286;2023-05-19T09:02:35;100722.94;;;14.41;54.51
55540;BME280;41384;51.418;7.286;2023-05-19T09:05:02;100724.38;;;14.43;53.27
55540;BME280;41384;51.418;7.286;2023-05-19T09:07:30;100718.44;;;14.48;53.94
55540;BME280;41384;51.418;7.286;2023-05-19T09:09:59;100718.78;;;14.65;53.80
55540;BME280;41384;51.418;7.286;2023-05-19T09:12:25;100715.09;;;14.73;52.19
55540;BME280;41384;51.418;7.286;2023-05-19T09:14:50;100723.72;;;14.62;52.17
55540;BME280;41384;51.418;7.286;2023-05-19T09:17:15;100718.19;;;14.56;52.19
55540;BME280;41384;51.418;7.286;2023-05-19T09:19:43;100710.84;;;14.58;52.27
55540;BME280;41384;51.418;7.286;2023-05-19T09:22:09;100705.94;;;14.55;52.95
55540;BME280;41384;51.418;7.286;2023-05-19T09:24:35;100702.84;;;14.72;52.83
55540;BME280;41384;51.418;7.286;2023-05-19T09:27:00;100700.25;;;14.97;50.21
55540;BME280;41384;51.418;7.286;2023-05-19T09:29:26;100697.97;;;15.08;51.21
55540;BME280;41384;51.418;7.286;2023-05-19T09:31:54;100692.22;;;15.11;51.46
55540;BME280;41384;51.418;7.286;2023-05-19T09:34:24;100701.38;;;15.15;49.12
55540;BME280;41384;51.418;7.286;2023-05-19T09:36:50;100688.84;;;15.22;48.98
55540;BME280;41384;51.418;7.286;2023-05-19T09:39:21;100689.50;;;15.17;50.80
55540;BME280;41384;51.418;7.286;2023-05-19T09:41:51;100687.75;;;15.30;50.83
55540;BME280;41384;51.418;7.286;2023-05-19T09:44:21;100679.31;;;15.40;50.51
55540;BME280;41384;51.418;7.286;2023-05-19T09:46:51;100680.63;;;15.56;48.52
55540;BME280;41384;51.418;7.286;2023-05-19T09:49:20;100680.19;;;15.59;49.56
55540;BME280;41384;51.418;7.286;2023-05-19T09:54:20;100683.22;;;15.63;48.88
55540;BME280;41384;51.418;7.286;2023-05-19T09:57:00;100679.81;;;15.74;47.84
55540;BME280;41384;51.418;7.286;2023-05-19T09:59:26;100682.88;;;15.78;49.45
55540;BME280;41384;51.418;7.286;2023-05-19T10:01:53;100671.19;;;15.79;47.90
55540;BME280;41384;51.418;7.286;2023-05-19T10:04:19;100662.78;;;15.82;47.25
55540;BME280;41384;51.418;7.286;2023-05-19T10:06:45;100665.59;;;15.87;48.89
55540;BME280;41384;51.418;7.286;2023-05-19T10:09:12;100662.66;;;15.95;48.07
55540;BME280;41384;51.418;7.286;2023-05-19T10:11:37;100667.53;;;15.98;48.00
55540;BME280;41384;51.418;7.286;2023-05-19T10:14:03;100659.06;;;16.08;47.77
55540;BME280;41384;51.418;7.286;2023-05-19T10:16:30;100660.13;;;16.19;46.58
55540;BME280;41384;51.418;7.286;2023-05-19T10:18:57;100668.06;;;16.26;46.44
55540;BME280;41384;51.418;7.286;2023-05-19T10:21:23;100665.16;;;16.27;47.72
55540;BME280;41384;51.418;7.286;2023-05-19T10:23:48;100670.78;;;16.19;48.21
55540;BME280;41384;51.418;7.286;2023-05-19T10:26:15;100670.50;;;16.27;48.01
55540;BME280;41384;51.418;7.286;2023-05-19T10:28:41;100669.53;;;16.40;47.17
55540;BME280;41384;51.418;7.286;2023-05-19T10:31:13;100661.47;;;16.47;46.72
55540;BME280;41384;51.418;7.286;2023-05-19T10:36:58;100656.75;;;16.61;46.43
55540;BME280;41384;51.418;7.286;2023-05-19T10:39:32;100655.63;;;16.69;47.70
55540;BME280;41384;51.418;7.286;2023-05-19T10:42:17;100661.63;;;16.95;46.71
55540;BME280;41384;51.418;7.286;2023-05-19T10:45:12;100649.84;;;16.72;46.56
55540;BME280;41384;51.418;7.286;2023-05-19T10:47:40;100648.72;;;16.80;47.42
55540;BME280;41384;51.418;7.286;2023-05-19T10:50:06;100646.88;;;16.80;46.58
55540;BME280;41384;51.418;7.286;2023-05-19T10:52:35;100645.97;;;16.86;46.87
55540;BME280;41384;51.418;7.286;2023-05-19T10:55:01;100652.47;;;16.90;45.19
55540;BME280;41384;51.418;7.286;2023-05-19T10:57:27;100636.28;;;17.04;46.15
55540;BME280;41384;51.418;7.286;2023-05-19T10:59:54;100643.59;;;17.09;46.08
55540;BME280;41384;51.418;7.286;2023-05-19T11:05:11;100640.81;;;17.03;45.72
55540;BME280;41384;51.418;7.286;2023-05-19T11:08:04;100638.16;;;17.15;47.26
55540;BME280;41384;51.418;7.286;2023-05-19T11:10:31;100641.53;;;17.11;44.84
55540;BME280;41384;51.418;7.286;2023-05-19T11:12:56;100635.59;;;17.20;44.90
55540;BME280;41384;51.418;7.286;2023-05-19T11:15:26;100639.00;;;17.28;47.62
55540;BME280;41384;51.418;7.286;2023-05-19T11:17:52;100649.44;;;17.29;47.49
55540;BME280;41384;51.418;7.286;2023-05-19T11:20:23;100647.69;;;17.23;45.10
55540;BME280;41384;51.418;7.286;2023-05-19T11:23:06;100649.22;;;17.55;44.38
55540;BME280;41384;51.418;7.286;2023-05-19T11:28:14;100635.06;;;17.54;45.65
55540;BME280;41384;51.418;7.286;2023-05-19T11:30:41;100638.88;;;17.58;45.34
55540;BME280;41384;51.418;7.286;2023-05-19T11:33:07;100635.75;;;17.49;44.89
55540;BME280;41384;51.418;7.286;2023-05-19T11:35:33;100631.34;;;17.55;43.94
55540;BME280;41384;51.418;7.286;2023-05-19T11:38:00;100621.59;;;17.61;46.17
55540;BME280;41384;51.418;7.286;2023-05-19T11:40:25;100617.31;;;17.72;45.64
55540;BME280;41384;51.418;7.286;2023-05-19T11:42:51;100623.34;;;17.79;44.75
55540;BME280;41384;51.418;7.286;2023-05-19T11:45:16;100619.25;;;17.88;45.21
55540;BME280;41384;51.418;7.286;2023-05-19T11:47:45;100625.97;;;18.03;45.31
55540;BME280;41384;51.418;7.286;2023-05-19T11:50:10;100613.69;;;17.78;44.69
55540;BME280;41384;51.418;7.286;2023-05-19T11:52:36;100609.97;;;17.79;46.16
55540;BME280;41384;51.418;7.286;2023-05-19T11:55:02;100616.69;;;17.82;45.50
55540;BME280;41384;51.418;7.286;2023-05-19T11:57:27;100623.97;;;17.98;45.76
55540;BME280;41384;51.418;7.286;2023-05-19T11:59:52;100613.88;;;18.12;43.91
55540;BME280;41384;51.418;7.286;2023-05-19T12:02:21;100622.16;;;17.87;42.73
55540;BME280;41384;51.418;7.286;2023-05-19T12:04:49;100621.31;;;18.10;44.18
55540;BME280;41384;51.418;7.286;2023-05-19T12:07:15;100617.22;;;18.19;44.45
55540;BME280;41384;51.418;7.286;2023-05-19T12:09:43;100607.19;;;18.27;44.72
55540;BME280;41384;51.418;7.286;2023-05-19T12:12:12;100609.22;;;18.19;43.77
55540;BME280;41384;51.418;7.286;2023-05-19T12:14:38;100598.78;;;18.18;46.38
55540;BME280;41384;51.418;7.286;2023-05-19T12:17:13;100596.19;;;18.23;45.37
55540;BME280;41384;51.418;7.286;2023-05-19T12:19:40;100606.44;;;18.43;43.35
55540;BME280;41384;51.418;7.286;2023-05-19T12:22:07;100593.56;;;18.40;44.25
55540;BME280;41384;51.418;7.286;2023-05-19T12:24:34;100596.19;;;18.52;43.95
55540;BME280;41384;51.418;7.286;2023-05-19T12:27:10;100598.94;;;18.57;41.83
55540;BME280;41384;51.418;7.286;2023-05-19T12:29:38;100597.09;;;18.58;43.53
55540;BME280;41384;51.418;7.286;2023-05-19T12:32:05;100599.16;;;18.38;43.18
55540;BME280;41384;51.418;7.286;2023-05-19T12:34:34;100598.97;;;18.28;43.33
55540;BME280;41384;51.418;7.286;2023-05-19T12:37:01;100588.38;;;18.33;42.17
55540;BME280;41384;51.418;7.286;2023-05-19T12:39:27;100576.81;;;18.45;43.42
55540;BME280;41384;51.418;7.286;2023-05-19T12:42:00;100576.16;;;18.55;43.56
55540;BME280;41384;51.418;7.286;2023-05-19T12:44:26;100575.94;;;18.56;42.19
55540;BME280;41384;51.418;7.286;2023-05-19T12:46:51;100571.66;;;18.72;41.32
55540;BME280;41384;51.418;7.286;2023-05-19T12:49:17;100571.50;;;18.79;41.34
55540;BME280;41384;51.418;7.286;2023-05-19T12:51:50;100565.75;;;18.87;40.87
55540;BME280;41384;51.418;7.286;2023-05-19T12:54:22;100561.38;;;18.81;42.55
55540;BME280;41384;51.418;7.286;2023-05-19T12:56:50;100560.88;;;18.67;44.34
55540;BME280;41384;51.418;7.286;2023-05-19T12:59:23;100574.41;;;18.60;43.25
55540;BME280;41384;51.418;7.286;2023-05-19T13:01:56;100564.09;;;18.52;43.16
55540;BME280;41384;51.418;7.286;2023-05-19T13:04:22;100565.53;;;18.43;42.24
55540;BME280;41384;51.418;7.286;2023-05-19T13:06:47;100564.41;;;18.38;42.41
55540;BME280;41384;51.418;7.286;2023-05-19T13:09:14;100560.72;;;18.28;43.83
55540;BME280;41384;51.418;7.286;2023-05-19T13:11:39;100565.84;;;18.29;42.58
55540;BME280;41384;51.418;7.286;2023-05-19T13:14:04;100559.53;;;18.35;43.12
55540;BME280;41384;51.418;7.286;2023-05-19T13:16:30;100563.25;;;18.34;42.28